createdAt,value
2022-09-27T00:01:43.818Z,18.95
2022-09-27T00:04:12.991Z,19.44
2022-09-27T00:06:41.291Z,19.51
2022-09-27T00:09:10.828Z,19.59
2022-09-27T00:11:42.847Z,19.39
2022-09-27T00:14:13.642Z,19.08
2022-09-27T00:16:43.937Z,19.18
2022-09-27T00:19:15.367Z,19.39
2022-09-27T00:21:44.843Z,19.50
2022-09-27T00:24:14.367Z,19.19
2022-09-27T00:26:44.015Z,18.98
2022-09-27T00:29:12.421Z,18.39
2022-09-27T00:31:41.398Z,18.67
2022-09-27T00:34:17.934Z,18.00
2022-09-27T00:36:46.152Z,18.41
2022-09-27T00:39:14.897Z,18.72
2022-09-27T00:41:45.630Z,18.86
2022-09-27T00:44:59.578Z,18.92
2022-09-27T00:47:34.534Z,18.91
2022-09-27T00:50:10.112Z,18.54
2022-09-27T00:52:45.056Z,18.54
2022-09-27T00:55:17.912Z,18.79
2022-09-27T00:57:49.406Z,19.08
2022-09-27T01:00:18.728Z,19.06
2022-09-27T01:02:50.617Z,18.94
2022-09-27T01:05:22.048Z,18.60
2022-09-27T01:07:50.336Z,18.77
2022-09-27T01:10:22.942Z,18.85
2022-09-27T01:13:02.772Z,18.91
2022-09-27T01:15:39.446Z,19.28
2022-09-27T01:18:22.497Z,19.47
2022-09-27T01:21:22.499Z,19.33
2022-09-27T01:24:08.126Z,19.44
2022-09-27T01:26:55.958Z,19.45
2022-09-27T01:29:37.864Z,19.27
2022-09-27T01:32:14.467Z,19.10
2022-09-27T01:34:47.448Z,19.30
2022-09-27T01:37:23.719Z,19.18
2022-09-27T01:40:00.290Z,19.00
2022-09-27T01:42:34.347Z,19.27
2022-09-27T01:45:07.942Z,19.40
2022-09-27T01:47:45.181Z,18.63
2022-09-27T01:50:18.075Z,18.85
2022-09-27T01:52:51.762Z,19.10
2022-09-27T01:55:24.855Z,18.63
2022-09-27T01:57:59.880Z,18.93
2022-09-27T02:00:28.443Z,18.98
2022-09-27T02:03:03.139Z,19.28
2022-09-27T02:05:36.679Z,19.00
2022-09-27T02:08:12.277Z,18.30
2022-09-27T02:10:44.943Z,18.39
2022-09-27T02:13:20.652Z,18.60
2022-09-27T02:15:55.563Z,18.93
2022-09-27T02:18:35.164Z,19.07
2022-09-27T02:21:08.950Z,19.27
2022-09-27T02:23:42.921Z,19.28
2022-09-27T02:26:17.183Z,19.34
2022-09-27T02:28:49.849Z,18.72
2022-09-27T02:31:18.250Z,19.27
2022-09-27T02:33:52.620Z,19.43
2022-09-27T02:36:21.537Z,19.43
2022-09-27T02:38:51.046Z,18.92
2022-09-27T02:41:21.135Z,19.13
2022-09-27T02:43:54.248Z,19.25
2022-09-27T02:46:38.561Z,19.23
2022-09-27T02:49:20.555Z,19.01
2022-09-27T02:51:56.722Z,19.23
2022-09-27T02:54:32.579Z,19.30
2022-09-27T02:57:10.737Z,19.02
2022-09-27T02:59:48.886Z,18.56
2022-09-27T03:02:27.706Z,18.87
2022-09-27T03:05:01.063Z,19.06
2022-09-27T03:07:29.457Z,19.08
2022-09-27T03:09:57.726Z,18.35
2022-09-27T03:12:27.289Z,18.68
2022-09-27T03:14:57.796Z,18.06
2022-09-27T03:17:26.472Z,18.11
2022-09-27T03:19:56.173Z,18.15
2022-09-27T03:22:24.441Z,18.04
2022-09-27T03:24:52.825Z,18.31
2022-09-27T03:27:21.138Z,18.48
2022-09-27T03:29:49.369Z,18.63
2022-09-27T03:32:18.188Z,18.40
2022-09-27T03:34:46.547Z,18.28
2022-09-27T03:37:16.239Z,18.62
2022-09-27T03:39:44.440Z,18.66
2022-09-27T03:42:12.800Z,18.95
2022-09-27T03:44:41.110Z,18.90
2022-09-27T03:47:09.374Z,18.40
2022-09-27T03:49:37.689Z,18.33
2022-09-27T03:52:05.913Z,18.30
2022-09-27T03:54:35.605Z,17.97
2022-09-27T03:57:03.869Z,18.81
2022-09-27T03:59:32.115Z,18.91
2022-09-27T04:02:00.523Z,18.49
2022-09-27T04:04:29.260Z,18.81
2022-09-27T04:06:57.833Z,18.89
2022-09-27T04:09:26.219Z,19.02
2022-09-27T04:11:55.911Z,19.11
2022-09-27T04:14:24.190Z,18.89
2022-09-27T04:16:52.622Z,18.62
2022-09-27T04:19:20.994Z,18.34
2022-09-27T04:21:49.293Z,18.20
2022-09-27T04:24:17.609Z,18.47
2022-09-27T04:26:46.009Z,18.75
2022-09-27T04:29:16.143Z,18.75
2022-09-27T04:31:45.404Z,18.33
2022-09-27T04:34:13.758Z,18.31
2022-09-27T04:36:40.994Z,18.59
2022-09-27T04:39:10.980Z,18.51
2022-09-27T04:41:40.274Z,18.29
2022-09-27T04:44:08.564Z,18.82
2022-09-27T04:46:38.351Z,19.09
2022-09-27T04:49:06.659Z,19.02
2022-09-27T04:51:34.914Z,19.02
2022-09-27T04:54:03.215Z,18.96
2022-09-27T04:56:31.481Z,18.99
2022-09-27T04:58:59.784Z,19.10
2022-09-27T05:01:28.076Z,18.99
2022-09-27T05:03:57.909Z,18.62
2022-09-27T05:06:26.163Z,18.39
2022-09-27T05:08:54.617Z,18.72
2022-09-27T05:11:23.401Z,19.09
2022-09-27T05:13:51.669Z,18.59
2022-09-27T05:16:20.270Z,18.98
2022-09-27T05:18:48.603Z,19.12
2022-09-27T05:21:18.613Z,19.09
2022-09-27T05:23:47.991Z,19.11
2022-09-27T05:26:16.494Z,19.17
2022-09-27T05:28:46.160Z,18.99
2022-09-27T05:31:14.708Z,18.47
2022-09-27T05:33:43.187Z,19.34
2022-09-27T05:36:12.207Z,19.57
2022-09-27T05:38:43.617Z,19.43
2022-09-27T05:41:11.926Z,19.57
2022-09-27T05:43:40.317Z,19.64
2022-09-27T05:46:08.796Z,19.55
2022-09-27T05:48:37.156Z,19.58
2022-09-27T05:51:06.228Z,20.00
2022-09-27T05:53:34.589Z,20.11
2022-09-27T05:56:05.252Z,20.10
2022-09-27T05:58:34.619Z,20.06
2022-09-27T06:01:02.928Z,20.11
2022-09-27T06:03:31.226Z,19.61
2022-09-27T06:06:03.949Z,19.72
2022-09-27T06:08:34.979Z,18.67
2022-09-27T06:11:07.131Z,20.30
2022-09-27T06:13:37.436Z,20.47
2022-09-27T06:16:06.887Z,20.26
2022-09-27T06:18:35.203Z,19.92
2022-09-27T06:21:05.386Z,20.23
2022-09-27T06:23:34.127Z,19.95
2022-09-27T06:26:03.867Z,19.56
2022-09-27T06:28:35.666Z,20.23
2022-09-27T06:31:06.418Z,19.92
2022-09-27T06:33:35.059Z,20.11
2022-09-27T06:36:03.971Z,20.10
2022-09-27T06:38:33.010Z,20.08
2022-09-27T06:41:03.604Z,19.98
2022-09-27T06:43:34.262Z,19.63
2022-09-27T06:46:05.968Z,19.77
2022-09-27T06:48:36.293Z,20.15
2022-09-27T06:51:05.007Z,20.43
2022-09-27T06:53:33.401Z,19.53
2022-09-27T06:56:02.140Z,20.83
2022-09-27T06:58:47.828Z,21.15
2022-09-27T07:01:18.289Z,21.21
2022-09-27T07:03:51.589Z,21.07
2022-09-27T07:06:23.008Z,21.24
2022-09-27T07:08:53.337Z,21.78
2022-09-27T07:11:23.619Z,21.05
2022-09-27T07:13:52.242Z,20.44
2022-09-27T07:16:22.136Z,20.82
2022-09-27T07:18:51.671Z,20.44
2022-09-27T07:21:19.971Z,19.87
2022-09-27T07:23:48.656Z,19.92
2022-09-27T07:26:17.069Z,19.94
2022-09-27T07:28:46.118Z,19.78
2022-09-27T07:31:14.869Z,19.17
2022-09-27T07:33:44.625Z,20.20
2022-09-27T07:36:14.020Z,20.33
2022-09-27T07:38:42.553Z,20.46
2022-09-27T07:41:14.256Z,20.53
2022-09-27T07:43:42.576Z,20.59
2022-09-27T07:46:11.293Z,20.17
2022-09-27T07:48:39.600Z,20.02
2022-09-27T07:51:11.045Z,20.47
2022-09-27T07:53:40.777Z,19.91
2022-09-27T07:56:09.606Z,19.99
2022-09-27T07:58:37.812Z,19.41
2022-09-27T08:01:06.176Z,19.44
2022-09-27T08:03:35.056Z,19.36
2022-09-27T08:06:05.567Z,19.91
2022-09-27T08:08:35.184Z,19.89
2022-09-27T08:11:03.441Z,20.52
2022-09-27T08:13:31.738Z,19.34
2022-09-27T08:16:03.458Z,20.37
2022-09-27T08:18:31.755Z,19.77
2022-09-27T08:21:01.235Z,20.13
2022-09-27T08:23:29.767Z,20.38
2022-09-27T08:26:00.019Z,20.69
2022-09-27T08:28:28.680Z,21.33
2022-09-27T08:30:59.340Z,21.68
2022-09-27T08:33:32.017Z,21.29
2022-09-27T08:36:01.951Z,21.94
2022-09-27T08:38:30.267Z,21.53
2022-09-27T08:41:09.375Z,21.01
2022-09-27T08:43:46.329Z,22.23
2022-09-27T08:46:28.892Z,22.41
2022-09-27T08:49:04.443Z,22.92
2022-09-27T08:51:34.896Z,23.09
2022-09-27T08:54:08.076Z,22.72
2022-09-27T08:56:38.458Z,22.84
2022-09-27T08:59:14.937Z,22.42
2022-09-27T09:01:43.891Z,22.90
2022-09-27T09:04:13.653Z,22.63
2022-09-27T09:06:47.095Z,22.60
2022-09-27T09:09:29.471Z,22.63
2022-09-27T09:12:21.721Z,21.94
2022-09-27T09:15:04.334Z,22.34
2022-09-27T09:17:53.641Z,22.77
2022-09-27T09:20:36.097Z,22.97
2022-09-27T09:23:37.472Z,23.10
2022-09-27T09:26:15.011Z,23.08
2022-09-27T09:28:59.154Z,23.14
2022-09-27T09:31:35.831Z,22.73
2022-09-27T09:34:15.640Z,22.25
2022-09-27T09:36:48.038Z,22.30
2022-09-27T09:39:20.909Z,22.72
2022-09-27T09:42:03.481Z,22.91
2022-09-27T09:44:40.659Z,22.33
2022-09-27T09:47:16.661Z,23.01
2022-09-27T09:49:49.081Z,22.50
2022-09-27T09:52:20.844Z,22.64
2022-09-27T09:54:54.939Z,22.97
2022-09-27T09:57:28.934Z,23.20
2022-09-27T10:00:02.576Z,23.13
2022-09-27T10:02:35.362Z,23.56
2022-09-27T10:05:07.931Z,23.83
2022-09-27T10:07:39.692Z,23.89
2022-09-27T10:10:12.275Z,23.93
2022-09-27T10:12:40.523Z,24.00
2022-09-27T10:15:16.264Z,23.62
2022-09-27T10:17:50.345Z,24.06
2022-09-27T10:20:27.242Z,24.12
2022-09-27T10:22:59.984Z,24.35
2022-09-27T10:25:48.565Z,24.68
2022-09-27T10:28:33.969Z,24.35
2022-09-27T10:31:06.319Z,23.87
2022-09-27T10:33:35.808Z,23.96
2022-09-27T10:36:04.631Z,23.90
2022-09-27T10:38:34.368Z,24.41
2022-09-27T10:41:19.114Z,24.53
2022-09-27T10:43:47.475Z,24.48
2022-09-27T10:46:28.138Z,24.74
2022-09-27T10:49:19.591Z,24.69
2022-09-27T10:51:52.870Z,24.29
2022-09-27T10:54:23.077Z,24.78
2022-09-27T10:57:00.221Z,25.36
2022-09-27T10:59:31.925Z,24.96
2022-09-27T11:02:02.035Z,24.86
2022-09-27T11:04:33.249Z,25.32
2022-09-27T11:07:15.904Z,25.27
2022-09-27T11:09:50.245Z,25.38
2022-09-27T11:12:20.894Z,25.46
2022-09-27T11:14:57.481Z,25.04
2022-09-27T11:17:40.731Z,24.86
2022-09-27T11:20:31.163Z,24.95
2022-09-27T11:23:15.664Z,24.74
2022-09-27T11:25:57.724Z,24.70
2022-09-27T11:28:37.618Z,25.14
2022-09-27T11:31:19.412Z,25.03
2022-09-27T11:34:01.573Z,24.99
2022-09-27T11:36:44.007Z,24.85
2022-09-27T11:39:21.149Z,24.88
2022-09-27T11:42:07.392Z,25.27
2022-09-27T11:45:02.989Z,25.27
2022-09-27T11:47:50.345Z,25.38
2022-09-27T11:50:47.265Z,25.36
2022-09-27T11:53:29.450Z,24.80
2022-09-27T11:56:09.060Z,24.86
2022-09-27T11:58:48.676Z,24.70
2022-09-27T12:01:30.198Z,24.55
2022-09-27T12:04:19.636Z,24.67
2022-09-27T12:07:00.280Z,24.98
2022-09-27T12:09:34.673Z,24.31
2022-09-27T12:12:07.879Z,25.07
2022-09-27T12:14:40.249Z,25.15
2022-09-27T12:17:14.380Z,25.19
2022-09-27T12:19:48.582Z,24.83
2022-09-27T12:22:40.142Z,25.14
2022-09-27T12:25:20.709Z,24.28
2022-09-27T12:27:53.796Z,24.17
2022-09-27T12:30:22.097Z,23.93
2022-09-27T12:32:59.827Z,24.28
2022-09-27T12:35:30.824Z,24.11
2022-09-27T12:38:04.767Z,24.55
2022-09-27T12:40:36.112Z,24.05
2022-09-27T12:43:10.264Z,24.01
2022-09-27T12:45:47.376Z,23.86
2022-09-27T12:48:22.964Z,24.09
2022-09-27T12:50:56.735Z,24.23
2022-09-27T12:53:31.730Z,24.69
2022-09-27T12:56:35.542Z,25.23
2022-09-27T12:59:30.506Z,25.14
2022-09-27T13:02:32.165Z,25.21
2022-09-27T13:05:22.587Z,25.96
2022-09-27T13:08:00.334Z,27.68
2022-09-27T13:10:47.643Z,27.81
2022-09-27T13:13:18.216Z,28.24
2022-09-27T13:15:47.750Z,27.73
2022-09-27T13:18:32.545Z,28.79
2022-09-27T13:21:00.875Z,28.39
2022-09-27T13:24:02.219Z,27.68
2022-09-27T13:26:51.853Z,28.13
2022-09-27T13:29:33.330Z,28.75
2022-09-27T13:32:19.848Z,29.74
2022-09-27T13:34:50.748Z,29.18
2022-09-27T13:37:48.199Z,29.26
2022-09-27T13:40:27.603Z,28.74
2022-09-27T13:43:33.208Z,28.39
2022-09-27T13:46:08.078Z,28.59
2022-09-27T13:48:50.121Z,28.04
2022-09-27T13:51:26.321Z,26.84
2022-09-27T13:53:59.630Z,26.15
2022-09-27T13:56:54.448Z,26.15
2022-09-27T13:59:28.111Z,26.13
2022-09-27T14:02:01.008Z,26.46
2022-09-27T14:04:43.349Z,26.19
2022-09-27T14:07:17.500Z,27.30
2022-09-27T14:09:49.080Z,27.20
2022-09-27T14:12:22.722Z,25.94
2022-09-27T14:14:54.842Z,25.03
2022-09-27T14:17:24.041Z,25.49
2022-09-27T14:19:54.211Z,25.08
2022-09-27T14:22:24.293Z,24.69
2022-09-27T14:24:54.676Z,24.05
2022-09-27T14:27:25.425Z,24.20
2022-09-27T14:29:57.795Z,24.47
2022-09-27T14:32:28.107Z,24.05
2022-09-27T14:35:29.953Z,23.83
2022-09-27T14:37:58.910Z,23.56
2022-09-27T14:40:29.019Z,23.24
2022-09-27T14:43:00.273Z,23.13
2022-09-27T14:45:36.366Z,23.15
2022-09-27T14:48:20.883Z,22.94
2022-09-27T14:51:02.623Z,23.08
2022-09-27T14:53:35.591Z,22.73
2022-09-27T14:56:07.265Z,22.17
2022-09-27T14:58:47.003Z,21.48
2022-09-27T15:01:20.453Z,21.26
2022-09-27T15:03:50.089Z,21.31
2022-09-27T15:06:20.207Z,21.76
2022-09-27T15:08:50.478Z,21.74
2022-09-27T15:11:19.805Z,22.14
2022-09-27T15:13:52.705Z,22.36
2022-09-27T15:16:25.550Z,22.33
2022-09-27T15:19:03.925Z,22.07
2022-09-27T15:21:34.796Z,22.36
2022-09-27T15:24:03.871Z,22.12
2022-09-27T15:26:38.821Z,21.80
2022-09-27T15:29:07.710Z,21.55
2022-09-27T15:31:38.474Z,21.27
2022-09-27T15:34:07.139Z,20.70
2022-09-27T15:36:53.324Z,20.33
2022-09-27T15:39:28.532Z,20.56
2022-09-27T15:42:06.397Z,20.37
2022-09-27T15:44:48.252Z,20.03
2022-09-27T15:47:51.394Z,20.26
2022-09-27T15:50:37.404Z,20.79
2022-09-27T15:53:07.183Z,20.30
2022-09-27T15:55:42.249Z,20.61
2022-09-27T15:58:17.006Z,20.82
2022-09-27T16:00:56.110Z,20.59
2022-09-27T16:03:27.569Z,20.66
2022-09-27T16:05:57.488Z,20.14
2022-09-27T16:08:26.284Z,20.01
2022-09-27T16:10:56.299Z,19.51
2022-09-27T16:13:28.854Z,19.60
2022-09-27T16:16:00.127Z,19.71
2022-09-27T16:18:31.049Z,19.72
2022-09-27T16:20:59.806Z,18.90
2022-09-27T16:23:28.309Z,18.97
2022-09-27T16:25:56.785Z,19.39
2022-09-27T16:28:25.119Z,19.51
2022-09-27T16:30:53.519Z,19.25
2022-09-27T16:33:21.803Z,19.63
2022-09-27T16:35:51.900Z,19.78
2022-09-27T16:38:20.227Z,20.16
2022-09-27T16:40:48.613Z,19.42
2022-09-27T16:43:17.190Z,18.84
2022-09-27T16:45:45.480Z,19.52
2022-09-27T16:48:13.736Z,19.51
2022-09-27T16:50:59.329Z,19.02
2022-09-27T16:53:29.536Z,18.87
2022-09-27T16:56:00.582Z,19.08
2022-09-27T16:58:30.453Z,19.25
2022-09-27T17:01:00.003Z,19.32
2022-09-27T17:03:28.804Z,19.56
2022-09-27T17:06:04.161Z,19.72
2022-09-27T17:08:33.912Z,19.59
2022-09-27T17:11:02.236Z,19.68
2022-09-27T17:13:30.523Z,19.76
2022-09-27T17:15:58.846Z,19.61
2022-09-27T17:18:27.130Z,19.64
2022-09-27T17:21:01.861Z,19.53
2022-09-27T17:23:31.064Z,19.51
2022-09-27T17:26:15.504Z,19.55
2022-09-27T17:28:43.929Z,19.61
2022-09-27T17:31:15.752Z,18.89
2022-09-27T17:33:46.368Z,19.14
2022-09-27T17:36:17.544Z,19.28
2022-09-27T17:38:47.055Z,18.91
2022-09-27T17:41:19.699Z,18.45
2022-09-27T17:43:50.285Z,18.11
2022-09-27T17:46:20.816Z,18.23
2022-09-27T17:52:31.102Z,18.34
2022-09-27T17:54:59.333Z,18.09
2022-09-27T17:57:29.113Z,18.31
2022-09-27T17:59:58.015Z,18.35
2022-09-27T18:02:26.630Z,18.56
2022-09-27T18:04:54.913Z,18.88
2022-09-27T18:07:23.256Z,18.58
2022-09-27T18:09:51.956Z,18.88
2022-09-27T18:12:20.187Z,18.90
2022-09-27T18:14:50.272Z,18.11
2022-09-27T18:17:18.596Z,19.06
2022-09-27T18:19:46.833Z,19.07
2022-09-27T18:22:15.129Z,19.25
2022-09-27T18:24:43.472Z,19.30
2022-09-27T18:27:15.852Z,19.30
2022-09-27T18:29:44.299Z,19.33
2022-09-27T18:32:13.975Z,19.56
2022-09-27T18:34:42.416Z,19.26
2022-09-27T18:37:10.720Z,19.41
2022-09-27T18:39:40.319Z,19.32
2022-09-27T18:42:09.126Z,18.80
2022-09-27T18:44:37.474Z,18.97
2022-09-27T18:47:05.845Z,19.45
2022-09-27T18:49:35.647Z,19.40
2022-09-27T18:52:03.986Z,19.60
2022-09-27T18:54:32.265Z,18.31
2022-09-27T18:57:00.546Z,19.30
2022-09-27T18:59:29.048Z,18.93
2022-09-27T19:01:57.407Z,18.37
2022-09-27T19:04:26.742Z,18.73
2022-09-27T19:06:57.567Z,18.71
2022-09-27T19:09:27.154Z,19.01
2022-09-27T19:11:55.694Z,19.00
2022-09-27T19:14:24.260Z,18.91
2022-09-27T19:16:52.542Z,18.12
2022-09-27T19:19:21.431Z,19.32
2022-09-27T19:21:50.244Z,19.20
2022-09-27T19:24:20.083Z,19.10
2022-09-27T19:26:53.641Z,19.00
2022-09-27T19:29:23.977Z,18.08
2022-09-27T19:31:52.309Z,18.74
2022-09-27T19:34:20.681Z,18.85
2022-09-27T19:36:48.936Z,18.38
2022-09-27T19:39:17.460Z,18.87
2022-09-27T19:41:47.237Z,19.34
2022-09-27T19:44:15.497Z,19.00
2022-09-27T19:46:45.373Z,18.77
2022-09-27T19:49:13.727Z,18.88
2022-09-27T19:51:41.996Z,19.13
2022-09-27T19:54:11.425Z,19.14
2022-09-27T19:56:39.651Z,19.25
2022-09-27T19:59:09.365Z,19.39
2022-09-27T20:01:37.765Z,19.42
2022-09-27T20:04:06.044Z,19.51
2022-09-27T20:06:34.648Z,19.17
2022-09-27T20:09:04.214Z,18.64
2022-09-27T20:11:34.095Z,18.77
2022-09-27T20:14:03.147Z,18.62
2022-09-27T20:16:33.067Z,18.75
2022-09-27T20:19:02.652Z,18.76
2022-09-27T20:21:32.776Z,18.65
2022-09-27T20:24:03.507Z,18.52
2022-09-27T20:26:34.641Z,18.96
2022-09-27T20:29:05.023Z,19.13
2022-09-27T20:31:37.350Z,19.05
2022-09-27T20:34:07.511Z,19.38
2022-09-27T20:36:38.051Z,18.63
2022-09-27T20:39:08.048Z,18.63
2022-09-27T20:41:37.591Z,18.03
2022-09-27T20:44:08.017Z,18.02
2022-09-27T20:46:39.468Z,18.42
2022-09-27T20:49:09.551Z,18.09
2022-09-27T20:51:39.854Z,18.62
2022-09-27T20:54:09.712Z,18.80
2022-09-27T20:56:40.741Z,18.23
2022-09-27T20:59:15.174Z,18.46
2022-09-27T21:01:46.231Z,18.65
2022-09-27T21:04:15.856Z,18.79
2022-09-27T21:06:44.635Z,18.67
2022-09-27T21:09:18.847Z,18.55
2022-09-27T21:11:47.609Z,18.64
2022-09-27T21:14:16.039Z,18.07
2022-09-27T21:16:45.982Z,18.74
2022-09-27T21:19:14.721Z,18.78
2022-09-27T21:21:43.113Z,18.75
2022-09-27T21:24:11.552Z,17.92
2022-09-27T21:26:39.899Z,17.44
2022-09-27T21:29:11.378Z,17.74
2022-09-27T21:31:39.688Z,17.80
2022-09-27T21:34:09.339Z,18.09
2022-09-27T21:36:39.548Z,18.06
2022-09-27T21:39:09.553Z,18.19
2022-09-27T21:41:39.149Z,18.16
2022-09-27T21:44:08.576Z,17.85
2022-09-27T21:46:44.313Z,17.63
2022-09-27T21:49:14.141Z,17.72
2022-09-27T21:51:44.610Z,17.70
2022-09-27T21:54:15.705Z,17.84
2022-09-27T21:56:45.559Z,17.22
2022-09-27T21:59:18.240Z,17.45
2022-09-27T22:01:47.728Z,17.69
2022-09-27T22:04:17.498Z,16.81
2022-09-27T22:06:45.833Z,17.53
2022-09-27T22:09:17.072Z,18.20
2022-09-27T22:11:47.621Z,17.76
2022-09-27T22:14:17.354Z,17.94
2022-09-27T22:16:45.637Z,17.97
2022-09-27T22:19:15.297Z,17.09
2022-09-27T22:21:45.458Z,17.22
2022-09-27T22:24:15.855Z,17.41
2022-09-27T22:26:48.217Z,17.57
2022-09-27T22:29:16.683Z,17.71
2022-09-27T22:31:45.164Z,17.66
2022-09-27T22:34:18.721Z,17.75
2022-09-27T22:36:48.607Z,17.87
2022-09-27T22:39:16.990Z,18.01
2022-09-27T22:41:45.387Z,18.09
2022-09-27T22:44:13.686Z,18.05
2022-09-27T22:46:42.495Z,18.21
2022-09-27T22:49:10.848Z,17.50
2022-09-27T22:51:39.123Z,17.75
2022-09-27T22:54:08.872Z,17.89
2022-09-27T22:56:37.068Z,17.09
2022-09-27T22:59:05.545Z,17.08
2022-09-27T23:01:33.876Z,17.53
2022-09-27T23:04:02.478Z,17.66
2022-09-27T23:06:30.837Z,17.80
2022-09-27T23:08:59.453Z,18.01
2022-09-27T23:11:29.519Z,17.49
2022-09-27T23:13:57.753Z,17.64
2022-09-27T23:16:26.081Z,17.56
2022-09-27T23:18:55.208Z,17.46
2022-09-27T23:21:24.315Z,17.72
2022-09-27T23:23:55.325Z,17.87
2022-09-27T23:26:26.251Z,17.81
2022-09-27T23:28:56.915Z,17.50
2022-09-27T23:31:25.834Z,17.66
2022-09-27T23:33:54.596Z,17.51
2022-09-27T23:36:26.360Z,17.90
2022-09-27T23:38:56.252Z,17.58
2022-09-27T23:41:24.540Z,17.58
2022-09-27T23:43:53.469Z,17.57
2022-09-27T23:46:24.039Z,17.32
2022-09-27T23:48:53.653Z,17.30
2022-09-27T23:51:21.919Z,17.50
2022-09-27T23:53:50.200Z,18.00
2022-09-27T23:56:19.101Z,17.65
2022-09-27T23:58:48.243Z,17.63
